createdAt,value
2017-09-19T00:00:30.334Z,11.04
2017-09-19T00:02:59.531Z,11.02
2017-09-19T00:05:28.695Z,10.79
2017-09-19T00:07:58.246Z,10.69
2017-09-19T00:10:28.383Z,10.68
2017-09-19T00:12:59.487Z,10.72
2017-09-19T00:15:29.625Z,10.75
2017-09-19T00:17:58.839Z,10.78
2017-09-19T00:20:28.400Z,10.84
2017-09-19T00:22:57.536Z,10.90
2017-09-19T00:25:27.491Z,10.92
2017-09-19T00:27:57.059Z,10.92
2017-09-19T00:30:26.193Z,10.87
2017-09-19T00:32:56.285Z,10.89
2017-09-19T00:35:25.763Z,10.88
2017-09-19T00:37:54.865Z,10.90
2017-09-19T00:40:23.991Z,10.89
2017-09-19T00:42:53.135Z,10.87
2017-09-19T00:45:22.231Z,10.81
2017-09-19T00:47:51.343Z,10.80
2017-09-19T00:50:20.474Z,10.80
2017-09-19T00:52:49.590Z,10.74
2017-09-19T00:55:18.769Z,10.76
2017-09-19T00:57:48.960Z,10.79
2017-09-19T01:00:18.139Z,10.78
2017-09-19T01:02:47.238Z,10.76
2017-09-19T01:05:17.305Z,10.71
2017-09-19T01:07:46.422Z,10.67
2017-09-19T01:10:16.336Z,10.65
2017-09-19T01:12:45.801Z,10.60
2017-09-19T01:15:15.698Z,10.54
2017-09-19T01:17:44.815Z,10.50
2017-09-19T01:20:14.159Z,10.47
2017-09-19T01:22:43.308Z,10.44
2017-09-19T01:25:27.217Z,10.42
2017-09-19T01:27:56.399Z,10.39
2017-09-19T01:30:25.553Z,10.39
2017-09-19T01:32:55.746Z,10.38
2017-09-19T01:35:25.630Z,10.34
2017-09-19T01:37:55.147Z,10.36
2017-09-19T01:40:24.327Z,10.35
2017-09-19T01:42:53.457Z,10.33
2017-09-19T01:45:22.555Z,10.30
2017-09-19T01:47:51.848Z,10.28
2017-09-19T01:50:20.950Z,10.26
2017-09-19T01:52:50.805Z,10.23
2017-09-19T01:55:19.962Z,10.21
2017-09-19T01:57:49.058Z,10.19
2017-09-19T02:00:18.205Z,10.18
2017-09-19T02:02:48.304Z,10.17
2017-09-19T02:05:18.970Z,10.17
2017-09-19T02:07:48.078Z,10.16
2017-09-19T02:10:17.311Z,10.15
2017-09-19T02:12:52.766Z,10.13
2017-09-19T02:15:22.552Z,10.10
2017-09-19T02:17:51.681Z,10.11
2017-09-19T02:20:20.806Z,10.10
2017-09-19T02:22:50.128Z,10.11
2017-09-19T02:25:19.211Z,10.09
2017-09-19T02:27:48.308Z,10.07
2017-09-19T02:30:17.507Z,10.04
2017-09-19T02:32:46.600Z,9.89
2017-09-19T02:35:15.746Z,9.66
2017-09-19T02:37:45.926Z,9.69
2017-09-19T02:40:15.022Z,9.67
2017-09-19T02:42:44.117Z,9.76
2017-09-19T02:45:13.501Z,9.85
2017-09-19T02:47:43.364Z,9.91
2017-09-19T02:50:12.484Z,9.94
2017-09-19T02:52:43.164Z,9.92
2017-09-19T02:55:12.256Z,9.93
2017-09-19T02:57:41.369Z,9.96
2017-09-19T03:00:11.267Z,9.97
2017-09-19T03:02:41.899Z,9.96
2017-09-19T03:05:11.042Z,9.92
2017-09-19T03:07:40.202Z,9.92
2017-09-19T03:10:09.323Z,9.90
2017-09-19T03:12:39.265Z,9.84
2017-09-19T03:15:08.626Z,9.79
2017-09-19T03:17:38.472Z,9.81
2017-09-19T03:20:08.341Z,9.79
2017-09-19T03:22:37.770Z,9.78
2017-09-19T03:25:06.870Z,9.80
2017-09-19T03:27:35.988Z,9.81
2017-09-19T03:30:05.331Z,9.81
2017-09-19T03:32:35.240Z,9.80
2017-09-19T03:35:05.212Z,9.80
2017-09-19T03:37:34.611Z,9.75
2017-09-19T03:40:03.774Z,9.71
2017-09-19T03:42:32.946Z,9.66
2017-09-19T03:45:02.189Z,9.59
2017-09-19T03:47:31.360Z,9.51
2017-09-19T03:50:01.265Z,9.44
2017-09-19T03:52:30.763Z,9.41
2017-09-19T03:54:59.915Z,9.41
2017-09-19T03:57:29.862Z,9.44
2017-09-19T03:59:59.193Z,9.46
2017-09-19T04:02:28.291Z,9.47
2017-09-19T04:04:57.634Z,9.45
2017-09-19T04:07:27.350Z,9.50
2017-09-19T04:09:57.421Z,9.53
2017-09-19T04:12:26.627Z,9.60
2017-09-19T04:14:55.781Z,9.66
2017-09-19T04:17:24.904Z,9.65
2017-09-19T04:19:53.976Z,9.70
2017-09-19T04:22:23.122Z,9.72
2017-09-19T04:24:52.204Z,9.69
2017-09-19T04:27:21.360Z,9.72
2017-09-19T04:29:51.517Z,9.72
2017-09-19T04:32:20.650Z,9.70
2017-09-19T04:34:49.747Z,9.71
2017-09-19T04:37:19.004Z,9.69
2017-09-19T04:39:48.957Z,9.64
2017-09-19T04:42:18.132Z,9.62
2017-09-19T04:44:47.498Z,9.61
2017-09-19T04:47:16.627Z,9.57
2017-09-19T04:49:45.786Z,9.35
2017-09-19T04:52:18.489Z,9.26
2017-09-19T04:54:48.394Z,9.36
2017-09-19T04:57:17.762Z,9.40
2017-09-19T04:59:47.083Z,9.43
2017-09-19T05:02:16.225Z,9.45
2017-09-19T05:04:45.502Z,9.48
2017-09-19T05:07:15.681Z,9.51
2017-09-19T05:09:44.919Z,9.56
2017-09-19T05:12:14.869Z,9.57
2017-09-19T05:14:44.501Z,9.53
2017-09-19T05:17:14.686Z,9.52
2017-09-19T05:19:44.685Z,9.56
2017-09-19T05:22:18.306Z,9.57
2017-09-19T05:24:47.434Z,9.55
2017-09-19T05:27:16.550Z,9.52
2017-09-19T05:29:46.628Z,9.52
2017-09-19T05:32:15.792Z,9.50
2017-09-19T05:34:44.865Z,9.55
2017-09-19T05:37:14.298Z,9.63
2017-09-19T05:39:43.396Z,9.64
2017-09-19T05:42:13.229Z,9.63
2017-09-19T05:44:42.673Z,9.69
2017-09-19T05:47:11.759Z,9.73
2017-09-19T05:49:42.402Z,9.61
2017-09-19T05:52:11.785Z,9.52
2017-09-19T05:54:41.740Z,9.51
2017-09-19T05:57:10.838Z,9.65
2017-09-19T05:59:40.111Z,9.77
2017-09-19T06:02:09.282Z,9.81
2017-09-19T06:04:38.481Z,9.89
2017-09-19T06:07:07.808Z,9.98
2017-09-19T06:09:36.996Z,10.06
2017-09-19T06:12:06.249Z,10.13
2017-09-19T06:14:36.602Z,10.16
2017-09-19T06:17:05.825Z,10.25
2017-09-19T06:19:35.763Z,10.33
2017-09-19T06:22:05.074Z,10.41
2017-09-19T06:24:34.312Z,10.54
2017-09-19T06:27:03.699Z,10.57
2017-09-19T06:29:33.049Z,10.67
2017-09-19T06:32:02.317Z,10.72
2017-09-19T06:34:31.464Z,10.75
2017-09-19T06:37:00.885Z,10.77
2017-09-19T06:39:30.070Z,10.76
2017-09-19T06:41:59.356Z,10.79
2017-09-19T06:44:29.182Z,10.85
2017-09-19T06:46:58.387Z,10.91
2017-09-19T06:49:28.370Z,10.96
2017-09-19T06:51:58.561Z,11.01
2017-09-19T06:54:28.360Z,11.03
2017-09-19T06:56:59.557Z,11.05
2017-09-19T06:59:28.853Z,11.05
2017-09-19T07:01:58.026Z,11.06
2017-09-19T07:04:27.480Z,11.09
2017-09-19T07:06:56.602Z,11.13
2017-09-19T07:09:26.925Z,11.17
2017-09-19T07:11:57.044Z,11.23
2017-09-19T07:14:27.519Z,11.29
2017-09-19T07:16:57.274Z,11.35
2017-09-19T07:19:26.559Z,11.43
2017-09-19T07:21:56.459Z,11.51
2017-09-19T07:24:25.667Z,11.60
2017-09-19T07:26:55.153Z,11.65
2017-09-19T07:29:24.376Z,11.67
2017-09-19T07:31:53.494Z,11.70
2017-09-19T07:34:22.745Z,11.76
2017-09-19T07:36:51.913Z,11.86
2017-09-19T07:39:21.930Z,11.96
2017-09-19T07:41:52.082Z,12.11
2017-09-19T07:44:21.301Z,12.26
2017-09-19T07:46:50.407Z,12.41
2017-09-19T07:49:20.612Z,12.54
2017-09-19T07:51:50.566Z,12.68
2017-09-19T07:54:21.079Z,12.80
2017-09-19T07:56:51.865Z,12.90
2017-09-19T07:59:21.105Z,13.06
2017-09-19T08:01:50.854Z,13.17
2017-09-19T08:04:21.035Z,13.28
2017-09-19T08:06:50.153Z,13.43
2017-09-19T08:09:19.795Z,13.54
2017-09-19T08:11:49.120Z,13.74
2017-09-19T08:14:19.310Z,13.97
2017-09-19T08:16:49.201Z,14.10
2017-09-19T08:19:19.944Z,14.37
2017-09-19T08:21:49.053Z,14.63
2017-09-19T08:24:18.194Z,14.92
2017-09-19T08:26:48.893Z,15.21
2017-09-19T08:29:19.499Z,15.33
2017-09-19T08:31:48.619Z,15.49
2017-09-19T08:34:18.131Z,15.62
2017-09-19T08:36:47.284Z,15.78
2017-09-19T08:39:16.451Z,15.96
2017-09-19T08:41:45.855Z,16.13
2017-09-19T08:44:15.766Z,16.16
2017-09-19T08:46:44.904Z,16.30
2017-09-19T08:49:14.201Z,16.19
2017-09-19T08:51:43.307Z,16.10
2017-09-19T08:54:14.833Z,16.13
2017-09-19T08:56:44.748Z,16.12
2017-09-19T08:59:13.924Z,16.17
2017-09-19T09:01:43.900Z,16.38
2017-09-19T09:04:13.353Z,16.78
2017-09-19T09:06:42.446Z,17.31
2017-09-19T09:09:11.542Z,17.80
2017-09-19T09:11:40.799Z,18.36
2017-09-19T09:14:10.281Z,19.10
2017-09-19T09:16:39.377Z,19.53
2017-09-19T09:19:08.910Z,19.88
2017-09-19T09:21:38.057Z,19.73
2017-09-19T09:24:07.226Z,19.41
2017-09-19T09:26:36.532Z,19.15
2017-09-19T09:29:05.629Z,19.24
2017-09-19T09:31:34.911Z,19.38
2017-09-19T09:34:05.030Z,19.65
2017-09-19T09:36:35.462Z,20.05
2017-09-19T09:39:04.697Z,20.53
2017-09-19T09:41:34.206Z,20.57
2017-09-19T09:44:03.402Z,20.96
2017-09-19T09:46:33.330Z,21.44
2017-09-19T09:49:03.261Z,21.81
2017-09-19T09:51:33.391Z,21.79
2017-09-19T09:54:03.756Z,21.63
2017-09-19T09:56:32.954Z,21.55
2017-09-19T09:59:02.236Z,21.42
2017-09-19T10:01:32.076Z,21.23
2017-09-19T10:04:01.573Z,21.43
2017-09-19T10:06:31.899Z,21.66
2017-09-19T10:09:01.220Z,21.93
2017-09-19T10:11:30.740Z,22.30
2017-09-19T10:14:02.259Z,22.72
2017-09-19T10:16:31.600Z,23.28
2017-09-19T10:19:00.835Z,23.04
2017-09-19T10:21:30.817Z,22.98
2017-09-19T10:24:00.006Z,22.78
2017-09-19T10:26:30.178Z,22.95
2017-09-19T10:29:01.786Z,23.38
2017-09-19T10:31:31.021Z,23.21
2017-09-19T10:34:00.244Z,23.09
2017-09-19T10:36:29.431Z,23.32
2017-09-19T10:38:59.363Z,23.03
2017-09-19T10:41:28.594Z,23.08
2017-09-19T10:43:58.993Z,23.34
2017-09-19T10:46:28.977Z,23.48
2017-09-19T10:48:58.223Z,23.77
2017-09-19T10:51:27.613Z,23.79
2017-09-19T10:53:56.776Z,24.10
2017-09-19T10:56:26.722Z,24.39
2017-09-19T10:58:56.152Z,23.91
2017-09-19T11:01:26.056Z,23.69
2017-09-19T11:03:55.165Z,24.03
2017-09-19T11:06:25.266Z,23.84
2017-09-19T11:08:55.141Z,23.36
2017-09-19T11:11:24.245Z,23.20
2017-09-19T11:13:54.440Z,22.77
2017-09-19T11:16:24.774Z,21.92
2017-09-19T11:18:53.872Z,21.30
2017-09-19T11:21:23.293Z,20.58
2017-09-19T11:23:52.549Z,20.19
2017-09-19T11:26:21.658Z,19.97
2017-09-19T11:28:53.023Z,19.91
2017-09-19T11:31:22.871Z,20.02
2017-09-19T11:33:52.004Z,20.13
2017-09-19T11:36:21.362Z,20.25
2017-09-19T11:38:50.458Z,20.03
2017-09-19T11:41:20.343Z,19.85
2017-09-19T11:43:50.556Z,19.43
2017-09-19T11:46:20.477Z,18.76
2017-09-19T11:48:50.342Z,18.36
2017-09-19T11:51:19.701Z,17.54
2017-09-19T11:53:49.155Z,16.70
2017-09-19T11:56:19.107Z,16.15
2017-09-19T11:58:48.614Z,15.77
2017-09-19T12:01:18.476Z,15.53
2017-09-19T12:03:48.512Z,15.41
2017-09-19T12:06:17.661Z,15.40
2017-09-19T12:08:47.211Z,15.44
2017-09-19T12:11:16.299Z,15.43
2017-09-19T12:13:46.235Z,15.40
2017-09-19T12:16:15.351Z,15.52
2017-09-19T12:18:44.447Z,15.66
2017-09-19T12:21:14.365Z,15.74
2017-09-19T12:23:43.465Z,15.77
2017-09-19T12:26:13.480Z,15.85
2017-09-19T12:28:42.957Z,15.96
2017-09-19T12:31:12.067Z,16.05
2017-09-19T12:33:41.173Z,16.12
2017-09-19T12:36:11.276Z,16.18
2017-09-19T12:38:41.157Z,16.21
2017-09-19T12:41:10.310Z,16.19
2017-09-19T12:43:40.203Z,16.21
2017-09-19T12:46:09.958Z,16.30
2017-09-19T12:48:39.107Z,16.33
2017-09-19T12:51:08.415Z,16.31
2017-09-19T12:53:38.303Z,16.38
2017-09-19T12:56:07.874Z,16.51
2017-09-19T12:58:38.348Z,16.59
2017-09-19T13:01:08.371Z,16.55
2017-09-19T13:03:38.496Z,16.53
2017-09-19T13:06:08.209Z,16.55
2017-09-19T13:08:37.381Z,16.75
2017-09-19T13:11:06.520Z,16.92
2017-09-19T13:13:37.068Z,16.98
2017-09-19T13:16:06.216Z,16.98
2017-09-19T13:18:35.347Z,17.06
2017-09-19T13:21:05.328Z,17.22
2017-09-19T13:23:34.540Z,17.40
2017-09-19T13:26:03.780Z,17.86
2017-09-19T13:28:33.468Z,18.11
2017-09-19T13:31:20.481Z,18.22
2017-09-19T13:33:52.608Z,18.30
2017-09-19T13:36:21.879Z,18.35
2017-09-19T13:38:51.016Z,18.41
2017-09-19T13:41:20.213Z,18.63
2017-09-19T13:43:49.337Z,18.96
2017-09-19T13:46:18.504Z,19.29
2017-09-19T13:48:48.584Z,19.43
2017-09-19T13:51:17.953Z,19.24
2017-09-19T13:53:47.165Z,19.04
2017-09-19T13:56:16.433Z,19.16
2017-09-19T13:58:45.642Z,19.11
2017-09-19T14:01:14.730Z,19.19
2017-09-19T14:03:44.087Z,19.29
2017-09-19T14:06:14.340Z,19.35
2017-09-19T14:08:44.592Z,19.29
2017-09-19T14:11:14.884Z,19.15
2017-09-19T14:13:45.436Z,18.96
2017-09-19T14:16:15.377Z,18.51
2017-09-19T14:18:45.318Z,18.18
2017-09-19T14:21:15.031Z,17.92
2017-09-19T14:23:45.442Z,17.73
2017-09-19T14:26:15.745Z,17.49
2017-09-19T14:28:45.946Z,17.05
2017-09-19T14:31:15.846Z,16.75
2017-09-19T14:33:49.590Z,16.62
2017-09-19T14:36:18.990Z,16.52
2017-09-19T14:38:48.167Z,16.41
2017-09-19T14:41:17.355Z,16.41
2017-09-19T14:43:46.463Z,16.40
2017-09-19T14:46:15.554Z,16.43
2017-09-19T14:48:46.702Z,16.54
2017-09-19T14:51:17.057Z,16.65
2017-09-19T14:53:46.828Z,16.70
2017-09-19T14:56:16.012Z,16.79
2017-09-19T14:58:46.087Z,16.89
2017-09-19T15:01:17.287Z,17.05
2017-09-19T15:03:47.232Z,17.10
2017-09-19T15:06:16.512Z,17.16
2017-09-19T15:08:45.939Z,17.16
2017-09-19T15:11:15.110Z,17.20
2017-09-19T15:13:45.027Z,17.21
2017-09-19T15:16:14.545Z,17.27
2017-09-19T15:18:45.683Z,17.30
2017-09-19T15:21:16.049Z,17.37
2017-09-19T15:23:46.220Z,17.38
2017-09-19T15:26:15.345Z,17.34
2017-09-19T15:28:44.828Z,17.35
2017-09-19T15:31:14.874Z,17.33
2017-09-19T15:33:44.073Z,17.21
2017-09-19T15:36:13.624Z,17.14
2017-09-19T15:38:44.161Z,16.99
2017-09-19T15:41:13.279Z,16.89
2017-09-19T15:43:42.418Z,16.86
2017-09-19T15:46:11.550Z,16.74
2017-09-19T15:48:41.334Z,16.66
2017-09-19T15:51:10.622Z,16.58
2017-09-19T15:53:39.781Z,16.53
2017-09-19T15:56:09.097Z,16.47
2017-09-19T15:58:38.286Z,16.46
2017-09-19T16:01:07.579Z,16.47
2017-09-19T16:03:36.714Z,16.45
2017-09-19T16:06:07.138Z,16.45
2017-09-19T16:08:37.878Z,16.40
2017-09-19T16:11:08.043Z,16.38
2017-09-19T16:13:37.285Z,16.36
2017-09-19T16:16:07.261Z,16.37
2017-09-19T16:18:36.722Z,16.34
2017-09-19T16:21:06.573Z,16.31
2017-09-19T16:23:37.006Z,16.23
2017-09-19T16:26:07.271Z,16.17
2017-09-19T16:28:36.455Z,16.08
2017-09-19T16:31:07.270Z,16.02
2017-09-19T16:33:36.474Z,15.93
2017-09-19T16:36:06.627Z,15.88
2017-09-19T16:38:35.995Z,15.78
2017-09-19T16:41:05.566Z,15.75
2017-09-19T16:43:35.052Z,15.74
2017-09-19T16:46:04.707Z,15.73
2017-09-19T16:48:35.798Z,15.69
2017-09-19T16:51:06.098Z,15.64
2017-09-19T16:53:35.296Z,15.56
2017-09-19T16:56:06.416Z,15.49
2017-09-19T16:58:37.264Z,15.43
2017-09-19T17:01:07.988Z,15.38
2017-09-19T17:03:37.308Z,15.34
2017-09-19T17:06:06.725Z,15.29
2017-09-19T17:08:36.108Z,15.28
2017-09-19T17:11:07.050Z,15.27
2017-09-19T17:13:37.593Z,15.26
2017-09-19T17:16:06.938Z,15.24
2017-09-19T17:18:38.185Z,15.29
2017-09-19T17:21:08.504Z,15.30
2017-09-19T17:23:37.731Z,15.29
2017-09-19T17:26:07.755Z,15.31
2017-09-19T17:28:37.459Z,15.31
2017-09-19T17:31:06.586Z,15.26
2017-09-19T17:33:36.710Z,15.23
2017-09-19T17:36:06.342Z,15.12
2017-09-19T17:38:36.690Z,15.12
2017-09-19T17:41:06.765Z,15.07
2017-09-19T17:43:38.140Z,15.06
2017-09-19T17:46:08.626Z,15.04
2017-09-19T17:48:39.093Z,15.06
2017-09-19T17:51:08.260Z,15.04
2017-09-19T17:53:38.502Z,15.07
2017-09-19T17:56:08.700Z,15.02
2017-09-19T17:58:38.084Z,15.01
2017-09-19T18:01:08.810Z,14.98
2017-09-19T18:03:38.343Z,14.96
2017-09-19T18:06:08.122Z,14.92
2017-09-19T18:08:37.397Z,14.86
2017-09-19T18:11:07.166Z,14.80
2017-09-19T18:13:37.150Z,14.74
2017-09-19T18:16:07.172Z,14.63
2017-09-19T18:18:36.679Z,14.58
2017-09-19T18:21:05.906Z,14.52
2017-09-19T18:23:35.103Z,14.46
2017-09-19T18:26:05.795Z,14.37
2017-09-19T18:28:35.114Z,14.28
2017-09-19T18:31:06.331Z,14.18
2017-09-19T18:33:35.582Z,14.10
2017-09-19T18:36:04.826Z,14.07
2017-09-19T18:38:35.846Z,14.04
2017-09-19T18:41:06.422Z,14.05
2017-09-19T18:43:35.757Z,14.03
2017-09-19T18:46:05.567Z,13.97
2017-09-19T18:48:34.756Z,13.96
2017-09-19T18:51:03.901Z,13.98
2017-09-19T18:53:34.365Z,13.97
2017-09-19T18:56:03.517Z,13.97
2017-09-19T18:58:33.287Z,13.99
2017-09-19T19:01:04.527Z,13.97
2017-09-19T19:03:33.925Z,13.91
2017-09-19T19:06:03.742Z,13.89
2017-09-19T19:08:33.183Z,13.94
2017-09-19T19:11:03.200Z,13.97
2017-09-19T19:13:33.405Z,14.04
2017-09-19T19:16:02.675Z,14.04
2017-09-19T19:18:32.647Z,14.05
2017-09-19T19:21:04.026Z,14.08
2017-09-19T19:23:34.272Z,14.10
2017-09-19T19:26:04.413Z,14.11
2017-09-19T19:28:33.945Z,14.12
2017-09-19T19:31:03.242Z,14.11
2017-09-19T19:33:32.413Z,14.11
2017-09-19T19:36:01.552Z,14.13
2017-09-19T19:38:31.266Z,14.11
2017-09-19T19:41:01.833Z,14.11
2017-09-19T19:43:31.361Z,14.08
2017-09-19T19:46:01.581Z,14.10
2017-09-19T19:48:30.861Z,14.08
2017-09-19T19:51:00.320Z,14.08
2017-09-19T19:53:30.371Z,14.06
2017-09-19T19:56:00.511Z,14.04
2017-09-19T19:58:31.218Z,14.06
2017-09-19T20:01:01.290Z,14.04
2017-09-19T20:03:30.910Z,14.07
2017-09-19T20:06:01.625Z,14.11
2017-09-19T20:08:37.179Z,14.14
2017-09-19T20:11:06.375Z,14.14
2017-09-19T20:13:35.861Z,14.15
2017-09-19T20:16:05.914Z,14.16
2017-09-19T20:18:35.244Z,14.22
2017-09-19T20:21:06.137Z,14.23
2017-09-19T20:23:35.386Z,14.21
2017-09-19T20:26:05.482Z,14.21
2017-09-19T20:28:35.088Z,14.20
2017-09-19T20:31:04.336Z,14.20
2017-09-19T20:33:34.582Z,14.20
2017-09-19T20:36:05.475Z,14.20
2017-09-19T20:38:35.643Z,14.24
2017-09-19T20:41:05.299Z,14.22
2017-09-19T20:43:35.728Z,14.26
2017-09-19T20:46:05.396Z,14.26
2017-09-19T20:48:35.991Z,14.30
2017-09-19T20:51:05.183Z,14.33
2017-09-19T20:53:34.449Z,14.32
2017-09-19T20:56:03.764Z,14.32
2017-09-19T20:58:34.760Z,14.33
2017-09-19T21:01:04.771Z,14.34
2017-09-19T21:03:39.708Z,14.39
2017-09-19T21:06:15.128Z,14.37
2017-09-19T21:08:49.826Z,14.35
2017-09-19T21:11:24.405Z,14.26
2017-09-19T21:13:59.429Z,14.19
2017-09-19T21:16:34.210Z,14.14
2017-09-19T21:19:09.299Z,14.11
2017-09-19T21:21:38.573Z,14.11
2017-09-19T21:24:08.067Z,14.10
2017-09-19T21:26:38.272Z,14.04
2017-09-19T21:29:07.442Z,14.04
2017-09-19T21:31:36.647Z,14.05
2017-09-19T21:34:05.838Z,13.96
2017-09-19T21:36:35.495Z,13.90
2017-09-19T21:39:04.702Z,13.87
2017-09-19T21:41:33.999Z,13.90
2017-09-19T21:44:03.277Z,13.91
2017-09-19T21:46:33.320Z,13.91
2017-09-19T21:49:02.577Z,13.85
2017-09-19T21:51:32.994Z,13.90
2017-09-19T21:54:02.299Z,13.94
2017-09-19T21:56:35.407Z,13.94
2017-09-19T21:59:06.520Z,13.96
2017-09-19T22:01:36.994Z,13.97
2017-09-19T22:04:06.381Z,13.95
2017-09-19T22:06:36.489Z,13.93
2017-09-19T22:09:06.885Z,13.94
2017-09-19T22:11:36.986Z,13.93
2017-09-19T22:14:07.086Z,13.91
2017-09-19T22:16:37.479Z,13.90
2017-09-19T22:19:06.836Z,13.89
2017-09-19T22:21:36.955Z,13.87
2017-09-19T22:24:07.501Z,13.84
2017-09-19T22:26:36.787Z,13.85
2017-09-19T22:29:06.821Z,13.85
2017-09-19T22:31:36.310Z,13.81
2017-09-19T22:34:05.719Z,13.82
2017-09-19T22:36:34.965Z,13.82
2017-09-19T22:39:04.315Z,13.74
2017-09-19T22:41:33.634Z,13.77
2017-09-19T22:44:02.888Z,13.80
2017-09-19T22:46:32.288Z,13.83
2017-09-19T22:49:01.546Z,13.82
2017-09-19T22:51:30.714Z,13.84
2017-09-19T22:54:00.221Z,13.85
2017-09-19T22:56:31.418Z,13.86
2017-09-19T22:59:00.665Z,13.85
2017-09-19T23:01:30.917Z,13.85
2017-09-19T23:04:00.149Z,13.84
2017-09-19T23:06:29.628Z,13.81
2017-09-19T23:08:59.647Z,13.80
2017-09-19T23:11:28.989Z,13.82
2017-09-19T23:13:58.549Z,13.84
2017-09-19T23:16:28.095Z,13.86
2017-09-19T23:18:57.276Z,13.88
2017-09-19T23:21:28.111Z,13.86
2017-09-19T23:23:58.493Z,13.84
2017-09-19T23:26:28.714Z,13.87
2017-09-19T23:28:58.756Z,13.86
2017-09-19T23:31:29.893Z,13.85
2017-09-19T23:33:59.198Z,13.86
2017-09-19T23:36:28.410Z,13.86
2017-09-19T23:38:58.642Z,13.80
2017-09-19T23:41:28.026Z,13.80
2017-09-19T23:43:57.190Z,13.77
2017-09-19T23:46:26.592Z,13.78
2017-09-19T23:48:56.498Z,13.74
2017-09-19T23:51:26.370Z,13.74
2017-09-19T23:53:56.855Z,13.74
2017-09-19T23:56:26.917Z,13.72
2017-09-19T23:58:56.065Z,13.69
